Henryton, Maryland
Current Conditions -  °F | °C
As of 6:56 PM on Monday 22 Dec 2014 (Local Time) from KBWI Reporting Station
Light Rain Light Rain  
Wind Chill: 32°   Ceiling: 900
Heat Index: 36°   Visibility: 1.2mi
Dew Point: 34°   Wind: 5mph
Humidity: 93%   Direction: 310°NW
Pressure: 30.15"   Gusts: NA
Location:  39.35°N, 76.9°W
Report Text: KBWI 222356Z 31004KT 1 1/4SM -RA BR BKN009 OVC012 02/01 A3015 RMK AO2 P0000
Loading
Personal Weather Stations






























Interactive Weather Map New forecast layout! Learn more

10-Day Weather Forecast

Advertisements
Track Severe Weather on mobile